Time;durP1;ratioP1;P1;durP2;ratioP2;P2;SDS_P1;SDS_P2;PMS_P1;PMS_P2;Temp;Humidity;BMP_temperature;BMP_pressure;BME280_temperature;BME280_humidity;BME280_pressure;Samples;Min_cycle;Max_cycle;Signal;HPM_P1;HPM_P2
2021/05/19 00:01:38;;;;;;;1.52;1.38;;;9.50;84.30;;;;;;5067852;28;20108;-72
2021/05/19 00:04:05;;;;;;;3.28;1.30;;;9.40;84.30;;;;;;5067079;28;20115;-72
2021/05/19 00:06:31;;;;;;;2.25;1.40;;;9.50;84.50;;;;;;5066170;28;20503;-72
2021/05/19 00:08:57;;;;;;;1.40;1.30;;;9.50;84.60;;;;;;5066944;28;20024;-72
2021/05/19 00:11:23;;;;;;;2.22;1.23;;;9.40;84.50;;;;;;5050802;28;20072;-72
2021/05/19 00:13:50;;;;;;;1.60;1.17;;;9.50;84.60;;;;;;5050676;28;20032;-72
2021/05/19 00:16:16;;;;;;;1.80;1.33;;;9.50;84.70;;;;;;5068303;28;20078;-72
2021/05/19 00:18:42;;;;;;;1.80;1.70;;;9.50;84.80;;;;;;5069174;28;20032;-72
2021/05/19 00:21:10;;;;;;;1.85;1.63;;;9.50;84.60;;;;;;5066258;28;21648;-72
2021/05/19 00:23:36;;;;;;;1.50;1.40;;;9.50;84.70;;;;;;5067178;28;20071;-72
2021/05/19 00:26:03;;;;;;;2.22;1.50;;;9.40;84.60;;;;;;5065596;28;20031;-72
2021/05/19 00:28:28;;;;;;;2.50;1.30;;;9.40;84.80;;;;;;5058782;28;20025;-72
2021/05/19 00:30:59;;;;;;;3.13;1.35;;;9.40;84.60;;;;;;5067538;28;20498;-72
2021/05/19 00:33:25;;;;;;;1.60;1.50;;;9.40;84.70;;;;;;5067281;28;20024;-72
2021/05/19 00:35:51;;;;;;;2.92;1.38;;;9.30;84.70;;;;;;5069912;28;20059;-72
2021/05/19 00:38:20;;;;;;;3.05;1.52;;;9.30;84.90;;;;;;5070357;28;20499;-72
2021/05/19 00:40:47;;;;;;;2.50;1.55;;;9.30;85.10;;;;;;5072991;28;20024;-72
2021/05/19 00:43:12;;;;;;;2.10;1.95;;;9.30;85.10;;;;;;5072090;28;20032;-72
2021/05/19 00:45:38;;;;;;;1.90;1.80;;;9.30;85.20;;;;;;5046139;28;20155;-72
2021/05/19 00:48:04;;;;;;;3.15;2.55;;;9.30;85.20;;;;;;5072229;28;20035;-72
2021/05/19 00:50:31;;;;;;;2.08;1.73;;;9.30;85.40;;;;;;5054101;28;20025;-72
2021/05/19 00:52:57;;;;;;;2.67;1.90;;;9.30;85.40;;;;;;5051950;28;20369;-72
2021/05/19 00:55:24;;;;;;;1.77;1.67;;;9.30;85.90;;;;;;5071971;28;20043;-72
2021/05/19 00:57:51;;;;;;;1.95;1.85;;;9.30;85.60;;;;;;5070977;28;20029;-72
2021/05/19 01:00:19;;;;;;;3.50;1.80;;;9.30;85.60;;;;;;5069815;28;20036;-72
2021/05/19 01:02:44;;;;;;;1.85;1.75;;;9.30;85.60;;;;;;5073277;28;20044;-71
2021/05/19 01:05:42;;;;;;;3.28;2.95;;;9.20;85.70;;;;;;5070897;28;20031;-71
2021/05/19 01:10:53;;;;;;;3.03;2.67;;;9.20;85.60;;;;;;5073013;28;20035;-71
2021/05/19 01:13:19;;;;;;;3.83;3.40;;;9.30;85.60;;;;;;5071460;28;20032;-71
2021/05/19 01:15:46;;;;;;;3.65;3.20;;;9.20;85.70;;;;;;5053215;28;20056;-71
2021/05/19 01:18:13;;;;;;;3.90;3.53;;;9.20;85.70;;;;;;5070591;28;20361;-70
2021/05/19 01:20:39;;;;;;;6.63;5.50;;;9.20;85.90;;;;;;5069704;28;20536;-70
2021/05/19 01:23:06;;;;;;;5.82;4.82;;;9.20;85.80;;;;;;5068237;28;20125;-70
2021/05/19 01:25:34;;;;;;;7.95;4.97;;;9.20;86.00;;;;;;5051526;28;20032;-70
2021/05/19 01:28:01;;;;;;;5.88;4.25;;;9.20;86.50;;;;;;5066459;28;20032;-71
2021/05/19 01:30:29;;;;;;;7.13;5.25;;;9.20;86.10;;;;;;5070575;28;20500;-70
2021/05/19 01:32:55;;;;;;;7.00;4.97;;;9.20;86.00;;;;;;5072605;28;20044;-70
2021/05/19 01:35:21;;;;;;;5.47;4.80;;;9.20;86.00;;;;;;5051910;28;20028;-70
2021/05/19 01:37:47;;;;;;;5.18;4.22;;;9.20;86.00;;;;;;5068667;28;20099;-70
2021/05/19 01:40:15;;;;;;;6.72;4.30;;;9.20;86.10;;;;;;5069047;28;20181;-70
2021/05/19 01:42:44;;;;;;;5.80;4.53;;;9.20;86.30;;;;;;5070996;28;20052;-70
2021/05/19 01:45:11;;;;;;;5.80;4.72;;;9.20;86.30;;;;;;5054528;28;20025;-70
2021/05/19 01:47:41;;;;;;;6.50;4.97;;;9.20;86.30;;;;;;5051161;28;20480;-70
2021/05/19 01:50:10;;;;;;;6.47;4.28;;;9.20;86.30;;;;;;5070534;28;20016;-70
2021/05/19 01:52:36;;;;;;;5.78;4.35;;;9.20;86.30;;;;;;5053476;28;20120;-70
2021/05/19 01:55:05;;;;;;;4.68;4.25;;;9.20;86.50;;;;;;5052678;28;20035;-70
2021/05/19 01:57:32;;;;;;;5.60;5.10;;;9.20;86.50;;;;;;5066118;28;20036;-70
2021/05/19 01:59:57;;;;;;;6.03;4.65;;;9.20;86.40;;;;;;5051444;28;20082;-70
2021/05/19 02:02:23;;;;;;;4.70;4.30;;;9.20;86.50;;;;;;5071182;28;20411;-71
2021/05/19 02:04:49;;;;;;;5.30;4.72;;;9.20;86.60;;;;;;5069113;28;20483;-71
2021/05/19 02:07:15;;;;;;;6.50;4.97;;;9.20;86.80;;;;;;5051228;28;20029;-70
2021/05/19 02:09:40;;;;;;;6.00;5.20;;;9.20;86.70;;;;;;5049908;28;20033;-70
2021/05/19 02:12:06;;;;;;;5.22;4.53;;;9.20;86.70;;;;;;5070658;28;20033;-70
2021/05/19 02:17:00;;;;;;;6.68;4.57;;;9.20;86.70;;;;;;5020147;28;20511;-69
2021/05/19 02:19:25;;;;;;;5.82;5.00;;;9.20;86.80;;;;;;5026792;28;20026;-69
2021/05/19 02:21:51;;;;;;;6.38;4.68;;;9.20;86.90;;;;;;5032249;28;20021;-69
2021/05/19 02:24:18;;;;;;;5.95;4.85;;;9.30;87.10;;;;;;5033549;28;20056;-69
2021/05/19 02:26:44;;;;;;;7.13;4.97;;;9.30;87.10;;;;;;5028321;28;20056;-69
2021/05/19 02:29:10;;;;;;;5.97;5.03;;;9.30;87.10;;;;;;5028639;28;20076;-69
2021/05/19 02:31:37;;;;;;;7.63;5.47;;;9.30;87.20;;;;;;5030333;28;20029;-69
2021/05/19 02:34:04;;;;;;;8.30;5.15;;;9.30;87.20;;;;;;5030790;28;20033;-69
2021/05/19 02:36:30;;;;;;;6.45;5.20;;;9.30;87.20;;;;;;5030703;28;20029;-69
2021/05/19 02:38:56;;;;;;;7.15;5.32;;;9.40;87.20;;;;;;5029837;28;20064;-69
2021/05/19 02:41:22;;;;;;;6.53;5.32;;;9.40;86.90;;;;;;5027536;28;20025;-69
2021/05/19 02:43:48;;;;;;;5.10;4.60;;;9.30;86.90;;;;;;5024981;28;20033;-69
2021/05/19 02:46:13;;;;;;;8.88;5.30;;;9.30;86.90;;;;;;5022339;28;20104;-69
2021/05/19 02:48:40;;;;;;;7.47;5.38;;;9.20;86.90;;;;;;5008655;28;20065;-69
2021/05/19 02:51:06;;;;;;;8.88;5.25;;;9.20;86.90;;;;;;5013399;28;20091;-69
2021/05/19 02:53:32;;;;;;;5.75;5.05;;;9.20;86.90;;;;;;5013036;28;20061;-69
2021/05/19 02:55:57;;;;;;;6.13;5.40;;;9.20;87.10;;;;;;5027982;28;20025;-69
2021/05/19 02:58:23;;;;;;;8.32;5.40;;;9.20;87.10;;;;;;5029482;28;20025;-69
2021/05/19 03:00:49;;;;;;;6.18;5.03;;;9.20;87.30;;;;;;5029794;28;20033;-69
2021/05/19 03:03:15;;;;;;;8.02;4.93;;;9.20;87.30;;;;;;5031707;28;20037;-69
2021/05/19 03:05:40;;;;;;;6.95;4.93;;;9.20;87.20;;;;;;5028144;28;20022;-69
2021/05/19 03:08:06;;;;;;;7.57;4.90;;;9.20;87.30;;;;;;5022532;28;20057;-69
2021/05/19 03:10:34;;;;;;;6.40;4.63;;;9.20;87.30;;;;;;5021720;28;20119;-69
2021/05/19 03:13:03;;;;;;;6.50;4.82;;;9.20;87.30;;;;;;5028176;28;20417;-69
2021/05/19 03:15:29;;;;;;;5.53;4.60;;;9.10;87.20;;;;;;5029507;28;20116;-69
2021/05/19 03:17:55;;;;;;;4.97;4.47;;;9.10;87.20;;;;;;5028178;28;20100;-69
2021/05/19 03:20:20;;;;;;;6.70;4.95;;;9.10;87.20;;;;;;5029897;28;20501;-69
2021/05/19 03:22:46;;;;;;;6.47;4.38;;;9.10;87.50;;;;;;5029557;28;20056;-69
2021/05/19 03:25:12;;;;;;;5.78;5.00;;;9.10;87.50;;;;;;5031051;28;20104;-69
2021/05/19 03:27:38;;;;;;;5.93;4.70;;;9.10;87.60;;;;;;5028627;28;20025;-69
2021/05/19 03:30:07;;;;;;;8.55;4.85;;;9.10;87.70;;;;;;5030727;28;20045;-69
2021/05/19 03:32:33;;;;;;;10.43;5.07;;;9.10;87.70;;;;;;5025811;28;20029;-69
2021/05/19 03:34:58;;;;;;;6.70;5.15;;;9.10;87.60;;;;;;5029353;28;20025;-69
2021/05/19 03:37:24;;;;;;;7.60;5.13;;;9.10;87.50;;;;;;5011093;28;20033;-69
2021/05/19 03:39:50;;;;;;;8.45;5.22;;;9.00;87.40;;;;;;5029230;28;20091;-69
2021/05/19 03:42:15;;;;;;;10.05;5.32;;;9.00;87.60;;;;;;5028154;28;20108;-69
2021/05/19 03:44:41;;;;;;;6.47;5.70;;;9.00;87.70;;;;;;5028469;28;20505;-69
2021/05/19 03:47:07;;;;;;;6.95;5.05;;;9.10;87.80;;;;;;5017592;28;20029;-69
2021/05/19 03:49:37;;;;;;;10.50;5.80;;;9.10;87.90;;;;;;5014842;28;20456;-69
2021/05/19 03:52:04;;;;;;;8.30;6.30;;;9.10;88.00;;;;;;5035427;28;20021;-69
2021/05/19 03:54:33;;;;;;;7.20;5.63;;;9.10;87.80;;;;;;5018425;28;20474;-69
2021/05/19 03:57:04;;;;;;;8.02;5.70;;;9.10;87.90;;;;;;5026725;28;20076;-69
2021/05/19 03:59:29;;;;;;;5.93;5.32;;;9.10;87.90;;;;;;5029091;28;20071;-69
2021/05/19 04:01:55;;;;;;;7.22;5.53;;;9.10;87.80;;;;;;5029233;28;20481;-69
2021/05/19 04:04:21;;;;;;;6.30;5.47;;;9.10;87.90;;;;;;5029076;28;20033;-69
2021/05/19 04:06:46;;;;;;;7.20;5.55;;;9.10;88.00;;;;;;5030693;28;20415;-69
2021/05/19 04:09:12;;;;;;;9.25;5.82;;;9.20;87.90;;;;;;5031410;28;20108;-69
2021/05/19 04:11:38;;;;;;;7.65;5.90;;;9.20;87.90;;;;;;5033346;28;20400;-69
2021/05/19 04:14:04;;;;;;;6.88;5.60;;;9.20;88.00;;;;;;5036409;28;20025;-69
2021/05/19 04:16:30;;;;;;;8.88;5.90;;;9.20;88.00;;;;;;5015532;28;20607;-69
2021/05/19 04:18:55;;;;;;;6.97;6.20;;;9.20;88.00;;;;;;5036758;28;20125;-69
2021/05/19 04:21:21;;;;;;;11.27;5.28;;;9.20;87.90;;;;;;5029946;28;20385;-69
2021/05/19 04:23:47;;;;;;;9.85;6.10;;;9.30;88.00;;;;;;5037019;28;20162;-69
2021/05/19 04:26:12;;;;;;;7.55;5.53;;;9.30;87.80;;;;;;5036420;28;20129;-69
2021/05/19 04:28:38;;;;;;;6.20;5.30;;;9.30;87.80;;;;;;5034223;28;20032;-69
2021/05/19 04:31:04;;;;;;;7.70;6.00;;;9.30;87.90;;;;;;5034744;28;20513;-69
2021/05/19 04:33:30;;;;;;;6.80;5.70;;;9.30;87.90;;;;;;5036440;28;20063;-69
2021/05/19 04:35:55;;;;;;;6.90;5.47;;;9.30;88.00;;;;;;5031678;28;20091;-69
2021/05/19 04:38:21;;;;;;;7.60;5.43;;;9.40;88.00;;;;;;5036317;28;20044;-69
2021/05/19 04:40:47;;;;;;;7.93;5.70;;;9.40;88.10;;;;;;5029419;28;20478;-69
2021/05/19 04:43:13;;;;;;;8.90;5.70;;;9.40;88.00;;;;;;5034266;28;20108;-69
2021/05/19 04:45:39;;;;;;;6.78;5.25;;;9.40;87.90;;;;;;5035454;28;20025;-69
2021/05/19 04:48:06;;;;;;;7.15;5.35;;;9.40;88.00;;;;;;5018035;28;20029;-69
2021/05/19 04:50:33;;;;;;;8.75;5.07;;;9.50;88.10;;;;;;5031896;28;20486;-69
2021/05/19 04:52:58;;;;;;;7.30;5.13;;;9.50;88.00;;;;;;5037648;28;20044;-69
2021/05/19 04:55:24;;;;;;;7.00;5.30;;;9.50;87.90;;;;;;5018121;28;20029;-69
2021/05/19 04:57:50;;;;;;;6.32;5.30;;;9.50;87.90;;;;;;5035067;28;20084;-69
2021/05/19 05:00:16;;;;;;;6.85;4.97;;;9.50;88.00;;;;;;5035159;28;20029;-69
2021/05/19 05:02:41;;;;;;;6.85;4.90;;;9.50;87.70;;;;;;5035461;28;20045;-70
2021/05/19 05:05:09;;;;;;;5.47;4.25;;;9.50;87.90;;;;;;5035889;28;20125;-69
2021/05/19 05:07:36;;;;;;;4.60;4.20;;;9.60;87.90;;;;;;5036569;28;20048;-69
2021/05/19 05:10:05;;;;;;;4.82;3.72;;;9.60;88.00;;;;;;5029977;28;20026;-69
2021/05/19 05:12:32;;;;;;;4.25;3.75;;;9.60;87.80;;;;;;5032945;28;20063;-69
2021/05/19 05:14:57;;;;;;;4.32;3.92;;;9.60;87.70;;;;;;5034206;28;20107;-69
2021/05/19 05:17:23;;;;;;;5.50;3.70;;;9.60;87.70;;;;;;5036087;28;20470;-69
2021/05/19 05:19:48;;;;;;;4.32;3.92;;;9.70;87.80;;;;;;5015874;28;20033;-69
2021/05/19 05:22:14;;;;;;;4.55;3.80;;;9.70;87.60;;;;;;5012803;28;20087;-71
2021/05/19 05:24:39;;;;;;;3.95;3.50;;;9.80;87.60;;;;;;5032749;28;20026;-71
2021/05/19 05:27:05;;;;;;;6.90;4.10;;;9.80;87.60;;;;;;5032286;28;20060;-71
2021/05/19 05:29:31;;;;;;;8.38;4.55;;;9.80;87.50;;;;;;5038340;28;20060;-71
2021/05/19 05:31:58;;;;;;;5.97;4.63;;;9.90;87.50;;;;;;5032548;28;20030;-71
2021/05/19 05:34:23;;;;;;;4.03;3.72;;;9.90;87.50;;;;;;5032410;28;20402;-71
2021/05/19 05:36:49;;;;;;;5.00;3.75;;;9.90;87.60;;;;;;5033132;28;20056;-71
2021/05/19 05:39:15;;;;;;;4.35;3.67;;;9.90;87.60;;;;;;5027685;28;20025;-71
2021/05/19 05:41:41;;;;;;;3.88;3.47;;;10.00;87.60;;;;;;5027041;28;20026;-71
2021/05/19 05:44:06;;;;;;;3.85;3.38;;;10.00;87.50;;;;;;5032425;28;20028;-71
2021/05/19 05:46:32;;;;;;;5.80;3.53;;;10.00;87.40;;;;;;5032830;28;20374;-69
2021/05/19 05:48:59;;;;;;;4.75;3.55;;;10.00;87.20;;;;;;5032662;28;20063;-68
2021/05/19 05:51:25;;;;;;;5.60;3.90;;;9.90;87.30;;;;;;5026970;28;20021;-68
2021/05/19 05:53:51;;;;;;;4.10;3.70;;;9.90;87.30;;;;;;5031336;28;20033;-68
2021/05/19 05:56:17;;;;;;;4.78;3.35;;;10.00;87.30;;;;;;5032613;28;20022;-70
2021/05/19 05:58:43;;;;;;;4.85;3.67;;;10.00;87.30;;;;;;5031134;28;20044;-72
2021/05/19 06:01:11;;;;;;;9.15;3.53;;;10.10;87.40;;;;;;5027696;28;21608;-70
2021/05/19 06:03:37;;;;;;;4.22;3.67;;;10.10;87.20;;;;;;5002438;28;20115;-71
2021/05/19 06:06:03;;;;;;;3.85;3.40;;;10.10;87.00;;;;;;5028720;28;20569;-69
2021/05/19 06:08:29;;;;;;;3.63;3.33;;;10.20;86.60;;;;;;5030247;28;20035;-68
2021/05/19 06:10:55;;;;;;;4.35;3.28;;;10.20;86.70;;;;;;5028731;28;20285;-68
2021/05/19 06:13:21;;;;;;;3.80;3.50;;;10.30;86.80;;;;;;5031972;28;20474;-69
2021/05/19 06:15:47;;;;;;;4.90;3.70;;;10.30;86.70;;;;;;5031652;28;20029;-68
2021/05/19 06:18:13;;;;;;;6.63;3.85;;;10.30;86.60;;;;;;5031962;28;20030;-68
2021/05/19 06:20:39;;;;;;;3.97;3.40;;;10.30;86.50;;;;;;5032283;28;20028;-68
2021/05/19 06:23:04;;;;;;;4.22;3.88;;;10.40;86.70;;;;;;5032162;28;20033;-69
2021/05/19 06:25:30;;;;;;;4.28;3.88;;;10.40;86.60;;;;;;5031113;28;20036;-68
2021/05/19 06:27:56;;;;;;;3.47;3.20;;;10.40;86.60;;;;;;5027213;28;20018;-69
2021/05/19 06:30:21;;;;;;;3.70;3.35;;;10.50;86.40;;;;;;5030904;28;20436;-68
2021/05/19 06:32:47;;;;;;;3.63;3.33;;;10.60;86.30;;;;;;5031089;28;20036;-68
2021/05/19 06:35:13;;;;;;;4.28;3.30;;;10.60;86.20;;;;;;5031486;28;20393;-68
2021/05/19 06:37:38;;;;;;;5.28;3.85;;;10.70;86.10;;;;;;5032183;28;20037;-68
2021/05/19 06:40:04;;;;;;;4.50;3.25;;;10.70;85.80;;;;;;5026430;28;20405;-69
2021/05/19 06:42:30;;;;;;;5.40;4.53;;;10.90;85.70;;;;;;5019178;28;20025;-69
2021/05/19 06:44:56;;;;;;;5.35;3.28;;;10.90;85.60;;;;;;5031504;28;20112;-68
2021/05/19 06:47:22;;;;;;;3.83;3.42;;;10.90;85.50;;;;;;5031457;28;20473;-69
2021/05/19 06:49:47;;;;;;;3.50;3.20;;;10.90;85.30;;;;;;5031675;28;20466;-69
2021/05/19 06:52:15;;;;;;;3.28;3.03;;;10.90;85.40;;;;;;5031557;28;20474;-69
2021/05/19 06:54:40;;;;;;;3.58;3.28;;;10.90;85.30;;;;;;5005348;28;20428;-69
2021/05/19 06:57:06;;;;;;;3.90;3.47;;;10.80;85.20;;;;;;5016384;28;20026;-68
2021/05/19 06:59:31;;;;;;;6.30;4.28;;;10.80;85.30;;;;;;5031553;28;20554;-68
2021/05/19 07:01:57;;;;;;;5.93;3.58;;;10.80;85.40;;;;;;5034364;28;20057;-68
2021/05/19 07:04:22;;;;;;;6.10;3.45;;;10.80;85.40;;;;;;5031701;28;20083;-69
2021/05/19 07:06:48;;;;;;;4.13;3.40;;;10.90;85.20;;;;;;5031774;28;20025;-69
2021/05/19 07:09:14;;;;;;;4.03;3.63;;;10.90;84.90;;;;;;5026582;28;20018;-68
2021/05/19 07:11:39;;;;;;;3.38;3.13;;;10.90;84.80;;;;;;5028740;28;20037;-69
2021/05/19 07:14:07;;;;;;;3.70;3.15;;;11.00;84.80;;;;;;5031108;28;20025;-69
2021/05/19 07:16:36;;;;;;;3.90;3.47;;;11.00;84.40;;;;;;5031508;28;20120;-69
2021/05/19 07:19:01;;;;;;;4.70;3.17;;;11.00;84.30;;;;;;5031039;28;20099;-69
2021/05/19 07:21:27;;;;;;;8.57;3.30;;;11.10;84.30;;;;;;5013581;28;20092;-69
2021/05/19 07:23:53;;;;;;;5.35;3.08;;;11.10;84.50;;;;;;5030504;28;20397;-70
2021/05/19 07:26:21;;;;;;;5.80;3.58;;;11.20;84.40;;;;;;5030003;28;20105;-69
2021/05/19 07:28:47;;;;;;;5.60;3.38;;;11.20;84.30;;;;;;5030964;28;20029;-69
2021/05/19 07:31:12;;;;;;;4.38;3.08;;;11.20;84.00;;;;;;5031280;28;20577;-69
2021/05/19 07:33:38;;;;;;;5.85;3.13;;;11.20;83.90;;;;;;5031517;28;20030;-68
2021/05/19 07:36:04;;;;;;;3.25;2.95;;;11.20;83.70;;;;;;5015334;28;20065;-68
2021/05/19 07:38:29;;;;;;;3.85;2.78;;;11.20;83.60;;;;;;5011187;28;20029;-69
2021/05/19 07:40:55;;;;;;;4.68;3.42;;;11.20;83.70;;;;;;5019125;28;20191;-69
2021/05/19 07:43:20;;;;;;;5.45;3.65;;;11.30;83.70;;;;;;5016317;28;20033;-69
2021/05/19 07:45:46;;;;;;;4.00;3.60;;;11.30;83.50;;;;;;5030679;28;20049;-69
2021/05/19 07:48:12;;;;;;;4.05;3.35;;;11.30;83.40;;;;;;5030907;28;20029;-69
2021/05/19 07:50:38;;;;;;;4.60;3.60;;;11.20;83.00;;;;;;5026448;28;20022;-69
2021/05/19 07:53:04;;;;;;;4.15;3.22;;;11.20;83.40;;;;;;5026464;28;20029;-68
2021/05/19 07:55:42;;;;;;;4.38;3.45;;;11.30;83.80;;;;;;5018948;28;20033;-69
2021/05/19 07:58:16;;;;;;;5.03;3.00;;;11.40;83.80;;;;;;5023748;28;20030;-69
2021/05/19 08:00:58;;;;;;;3.45;2.65;;;11.50;83.30;;;;;;5027079;28;20053;-68
2021/05/19 08:03:23;;;;;;;3.10;2.78;;;11.60;83.30;;;;;;5036070;28;20021;-69
2021/05/19 08:05:49;;;;;;;3.58;2.45;;;11.80;83.30;;;;;;5030273;28;20458;-69
2021/05/19 08:08:14;;;;;;;3.90;2.92;;;12.60;82.20;;;;;;5035849;28;20022;-69
2021/05/19 08:10:42;;;;;;;3.75;3.03;;;13.00;81.40;;;;;;5021865;28;20022;-69
2021/05/19 08:13:09;;;;;;;2.67;2.47;;;13.10;80.90;;;;;;5031147;28;20558;-69
2021/05/19 08:15:35;;;;;;;2.80;2.60;;;13.30;80.60;;;;;;5029401;28;20125;-69
2021/05/19 08:18:04;;;;;;;2.75;2.38;;;13.30;80.10;;;;;;5054508;22;20090;-70
2021/05/19 08:20:30;;;;;;;3.40;2.78;;;13.60;79.50;;;;;;5073480;28;20071;-68
2021/05/19 08:22:55;;;;;;;4.40;2.38;;;14.10;77.90;;;;;;5051603;28;20060;-71
2021/05/19 08:25:21;;;;;;;2.72;2.42;;;14.10;77.50;;;;;;5051715;28;20095;-70
2021/05/19 08:27:47;;;;;;;3.10;2.58;;;14.10;77.60;;;;;;5051129;28;20016;-70
2021/05/19 08:30:14;;;;;;;3.10;2.63;;;13.80;78.30;;;;;;5069633;28;20103;-70
2021/05/19 08:32:40;;;;;;;6.40;2.90;;;13.60;78.50;;;;;;5069505;28;20021;-70
2021/05/19 08:35:06;;;;;;;6.38;2.72;;;13.60;78.30;;;;;;5068935;28;20486;-70
2021/05/19 08:37:32;;;;;;;2.55;2.33;;;14.00;77.40;;;;;;5051762;28;20020;-70
2021/05/19 08:39:57;;;;;;;3.58;2.58;;;14.00;77.30;;;;;;5069407;28;20031;-71
2021/05/19 08:42:23;;;;;;;2.95;2.30;;;14.00;77.50;;;;;;5069977;28;20504;-71
2021/05/19 08:44:49;;;;;;;3.42;2.63;;;14.00;77.50;;;;;;5051067;28;20020;-70
2021/05/19 08:47:21;;;;;;;47.58;28.23;;;13.90;77.40;;;;;;5069744;28;20075;-70
2021/05/19 08:49:47;;;;;;;;;;;14.00;77.40;;;;;;5069461;28;20031;-69
2021/05/19 08:52:12;;;;;;;3.67;2.90;;;14.10;77.60;;;;;;5081975;28;20007;-70
2021/05/19 08:54:39;;;;;;;2.60;2.40;;;14.10;77.50;;;;;;5051601;28;20384;-70
2021/05/19 08:57:04;;;;;;;2.95;2.30;;;14.30;77.30;;;;;;5047667;28;20479;-71
2021/05/19 08:59:30;;;;;;;4.45;2.08;;;15.10;75.80;;;;;;5073977;28;20093;-70
2021/05/19 09:02:08;;;;;;;2.20;2.05;;;16.20;73.60;;;;;;5055324;28;20494;-70
2021/05/19 09:04:33;;;;;;;3.28;2.00;;;15.80;73.10;;;;;;5073040;28;20028;-69
2021/05/19 09:06:59;;;;;;;1.95;1.80;;;15.50;73.60;;;;;;5073149;28;20021;-71
2021/05/19 09:09:29;;;;;;;1.63;1.52;;;15.50;74.50;;;;;;5062393;28;20013;-71
2021/05/19 09:12:02;;;;;;;1.75;1.42;;;15.50;74.90;;;;;;5073353;28;20108;-70
2021/05/19 09:14:32;;;;;;;2.00;1.67;;;15.30;74.40;;;;;;5054776;28;20020;-70
2021/05/19 09:17:28;;;;;;;3.97;1.50;;;15.10;74.40;;;;;;5054874;28;20089;-70
2021/05/19 09:20:04;;;;;;;1.77;1.60;;;15.00;73.90;;;;;;5072926;28;20021;-70
2021/05/19 09:22:38;;;;;;;1.73;1.50;;;14.80;74.20;;;;;;5054982;28;20024;-69
2021/05/19 09:25:19;;;;;;;1.90;1.80;;;14.70;74.90;;;;;;5054938;28;20039;-69
2021/05/19 09:27:52;;;;;;;2.05;1.88;;;14.70;74.90;;;;;;5073011;28;20089;-70
2021/05/19 09:30:48;;;;;;;2.75;2.22;;;14.70;75.20;;;;;;5072969;28;20104;-70
2021/05/19 09:33:17;;;;;;;3.10;2.03;;;14.80;75.20;;;;;;5049394;28;20032;-70
2021/05/19 09:36:03;;;;;;;2.28;1.83;;;15.60;73.90;;;;;;5072169;28;20038;-69
2021/05/19 09:38:30;;;;;;;4.15;2.83;;;15.50;73.60;;;;;;5052208;28;20028;-70
2021/05/19 09:41:28;;;;;;;2.30;2.10;;;16.40;72.30;;;;;;5053780;28;20040;-71
2021/05/19 09:43:56;;;;;;;2.20;1.60;;;18.10;70.00;;;;;;5059897;28;20060;-71
2021/05/19 09:46:34;;;;;;;2.45;1.60;;;18.70;69.20;;;;;;5071913;28;20027;-71
2021/05/19 09:49:14;;;;;;;3.20;1.70;;;19.50;68.40;;;;;;5052699;28;20074;-71
2021/05/19 09:51:50;;;;;;;5.20;1.77;;;18.90;67.60;;;;;;5069233;28;20021;-71
2021/05/19 09:54:38;;;;;;;1.80;1.67;;;18.20;68.50;;;;;;5066193;28;20151;-70
2021/05/19 09:57:06;;;;;;;2.72;1.77;;;17.50;69.20;;;;;;5056831;28;20021;-71
2021/05/19 09:59:33;;;;;;;1.60;1.50;;;17.00;69.60;;;;;;5054590;28;20033;-70
2021/05/19 10:02:00;;;;;;;1.83;1.67;;;16.60;69.80;;;;;;5071544;28;20029;-71
2021/05/19 10:04:30;;;;;;;2.95;1.80;;;17.10;69.20;;;;;;5070870;28;20048;-70
2021/05/19 10:06:57;;;;;;;1.85;1.55;;;17.30;68.80;;;;;;5053367;28;20033;-71
2021/05/19 10:09:25;;;;;;;3.33;1.65;;;17.50;68.40;;;;;;5053670;28;20024;-72
2021/05/19 10:11:50;;;;;;;4.65;1.50;;;17.80;67.50;;;;;;5053328;28;20031;-72
2021/05/19 10:14:17;;;;;;;1.67;1.23;;;18.30;68.40;;;;;;5071329;28;20032;-72
2021/05/19 10:16:45;;;;;;;2.50;1.30;;;18.20;68.30;;;;;;5071511;28;20037;-72
2021/05/19 10:19:27;;;;;;;1.67;1.30;;;18.00;67.50;;;;;;5070632;28;21166;-72
2021/05/19 10:21:55;;;;;;;1.85;1.35;;;17.80;67.10;;;;;;5053465;28;20495;-72
2021/05/19 10:24:23;;;;;;;4.38;1.60;;;17.40;66.60;;;;;;5070130;28;20029;-71
2021/05/19 10:27:00;;;;;;;2.58;1.55;;;17.10;66.30;;;;;;5070488;28;20021;-71
2021/05/19 10:29:47;;;;;;;2.38;1.30;;;17.20;65.90;;;;;;5056839;28;20051;-72
2021/05/19 10:32:22;;;;;;;5.10;1.65;;;17.50;66.20;;;;;;5034486;28;20029;-71
2021/05/19 10:34:53;;;;;;;1.65;1.38;;;17.80;66.00;;;;;;5052872;28;20614;-71
2021/05/19 10:37:27;;;;;;;1.88;1.52;;;18.00;65.60;;;;;;5054152;28;20027;-69
2021/05/19 10:40:12;;;;;;;2.78;1.10;;;18.40;66.00;;;;;;5071822;28;20052;-69
2021/05/19 10:43:02;;;;;;;2.65;1.30;;;18.40;65.30;;;;;;5053582;28;20050;-69
2021/05/19 10:45:28;;;;;;;3.75;1.10;;;18.50;63.50;;;;;;5067420;28;20037;-69
2021/05/19 10:47:54;;;;;;;2.17;1.40;;;18.30;63.70;;;;;;5071149;28;20032;-70
2021/05/19 10:50:38;;;;;;;1.70;1.40;;;18.30;63.60;;;;;;5052772;28;20013;-71
2021/05/19 10:58:59;;;;;;;3.55;1.50;;;17.60;64.00;;;;;;5067537;28;20035;-71
2021/05/19 11:01:41;;;;;;;2.80;1.42;;;17.20;63.60;;;;;;5070763;28;20449;-71
2021/05/19 11:04:17;;;;;;;3.00;1.55;;;17.00;64.10;;;;;;5055151;28;20028;-72
2021/05/19 11:07:01;;;;;;;2.47;1.33;;;17.10;64.10;;;;;;5069898;28;20021;-70
2021/05/19 11:09:31;;;;;;;3.90;1.20;;;17.30;64.00;;;;;;5070050;28;20058;-70
2021/05/19 11:12:24;;;;;;;6.03;1.30;;;17.40;64.00;;;;;;5052661;28;20183;-71
2021/05/19 11:14:57;;;;;;;2.85;1.27;;;17.40;62.70;;;;;;5070014;28;20020;-71
2021/05/19 11:17:32;;;;;;;1.50;0.95;;;17.40;63.60;;;;;;5051736;28;20123;-71
2021/05/19 11:19:57;;;;;;;3.80;1.30;;;17.40;63.50;;;;;;5045776;28;20115;-71
2021/05/19 11:22:23;;;;;;;3.70;1.10;;;17.40;63.60;;;;;;5070206;28;20055;-71
2021/05/19 11:24:57;;;;;;;2.65;1.00;;;17.30;63.10;;;;;;5069266;28;20028;-71
2021/05/19 11:27:26;;;;;;;1.02;0.70;;;17.20;62.20;;;;;;5051898;28;20024;-71
2021/05/19 11:29:52;;;;;;;1.92;1.00;;;17.20;62.50;;;;;;5070512;28;20465;-71
2021/05/19 11:32:20;;;;;;;1.92;1.00;;;17.20;62.30;;;;;;5052920;28;20472;-71
2021/05/19 11:34:46;;;;;;;2.78;1.20;;;17.20;62.70;;;;;;5081045;28;20020;-71
2021/05/19 11:37:14;;;;;;;2.63;1.20;;;17.20;63.30;;;;;;5080444;28;20376;-69
2021/05/19 11:39:46;;;;;;;0.98;0.95;;;17.10;63.10;;;;;;5069750;28;20032;-71
2021/05/19 11:42:18;;;;;;;;;;;17.00;62.90;;;;;;5069973;28;20028;-71
2021/05/19 11:44:55;;;;;;;2.17;1.00;;;17.00;63.60;;;;;;5069731;28;20002;-69
2021/05/19 11:47:28;;;;;;;2.33;1.00;;;17.00;63.70;;;;;;5052353;28;20048;-70
2021/05/19 11:50:12;;;;;;;2.85;0.90;;;17.10;63.50;;;;;;5054803;28;20095;-69
2021/05/19 11:52:52;;;;;;;1.42;0.90;;;17.20;63.10;;;;;;5071677;28;20028;-69
2021/05/19 11:55:41;;;;;;;4.50;0.73;;;17.20;62.30;;;;;;5069624;28;20495;-70
2021/05/19 11:58:15;;;;;;;0.75;0.60;;;17.30;61.50;;;;;;5068868;28;20017;-72
2021/05/19 12:01:14;;;;;;;1.80;0.73;;;17.40;61.70;;;;;;5067490;28;20389;-69
2021/05/19 12:03:40;;;;;;;2.60;0.80;;;17.50;61.10;;;;;;5070159;28;20024;-69
2021/05/19 12:06:11;;;;;;;2.47;0.82;;;17.70;61.70;;;;;;5068905;28;20131;-70
2021/05/19 12:08:41;;;;;;;2.45;0.80;;;17.70;60.40;;;;;;5070089;28;20510;-69
2021/05/19 12:11:18;;;;;;;3.28;0.85;;;17.70;60.90;;;;;;5070671;28;20025;-70
2021/05/19 12:13:45;;;;;;;2.08;0.93;;;17.60;60.70;;;;;;5070444;28;20675;-70
2021/05/19 12:16:17;;;;;;;1.95;0.60;;;17.60;61.10;;;;;;5070388;28;20056;-69
2021/05/19 12:19:08;;;;;;;0.95;0.60;;;17.70;60.10;;;;;;5060222;28;20194;-71
2021/05/19 12:21:38;;;;;;;1.48;0.60;;;17.70;59.80;;;;;;5065842;28;20040;-71
2021/05/19 12:24:05;;;;;;;2.58;0.70;;;17.70;60.20;;;;;;5050650;28;20037;-71
2021/05/19 12:26:31;;;;;;;1.42;0.80;;;17.70;59.40;;;;;;5066311;28;20029;-71
2021/05/19 12:28:57;;;;;;;2.03;1.33;;;17.80;59.80;;;;;;5069734;28;20020;-69
2021/05/19 12:31:34;;;;;;;2.67;0.60;;;18.00;59.40;;;;;;5073670;28;20016;-69
2021/05/19 12:34:12;;;;;;;0.63;0.50;;;18.40;57.60;;;;;;5087711;28;20031;-69
2021/05/19 12:36:40;;;;;;;16.67;10.70;;;18.50;58.00;;;;;;5094274;28;20032;-70
2021/05/19 12:39:07;;;;;;;0.73;0.52;;;18.70;57.50;;;;;;5094168;28;20024;-70
2021/05/19 12:41:53;;;;;;;1.02;0.50;;;18.80;57.10;;;;;;5086485;28;20020;-69
2021/05/19 12:44:31;;;;;;;1.02;0.65;;;18.90;55.70;;;;;;5067751;28;20460;-69
2021/05/19 12:47:02;;;;;;;1.52;0.70;;;19.10;55.40;;;;;;5073833;28;20028;-71
2021/05/19 12:49:32;;;;;;;1.73;0.70;;;19.10;55.60;;;;;;5089376;28;20020;-69
2021/05/19 12:52:18;;;;;;;0.88;0.70;;;19.10;55.40;;;;;;5072306;28;20024;-69
2021/05/19 12:54:52;;;;;;;1.00;0.63;;;19.00;56.00;;;;;;5090904;28;20028;-70
2021/05/19 12:57:18;;;;;;;4.03;0.60;;;19.00;56.20;;;;;;5068030;28;20452;-70
2021/05/19 13:00:04;;;;;;;2.47;0.80;;;19.10;56.20;;;;;;5073544;28;20027;-69
2021/05/19 13:02:50;;;;;;;4.43;1.20;;;19.20;55.90;;;;;;5067935;28;20035;-69
2021/05/19 13:05:39;;;;;;;1.27;0.60;;;19.20;55.70;;;;;;5072852;28;20028;-70
2021/05/19 13:08:17;;;;;;;2.75;0.80;;;19.20;55.20;;;;;;5073274;28;20069;-72
2021/05/19 13:10:47;;;;;;;2.35;0.75;;;19.10;55.30;;;;;;5055332;28;20033;-70